createdAt,value
2023-11-01T00:05:24.659Z,99440.31
2023-11-01T00:12:07.154Z,99448.44
2023-11-01T00:18:49.617Z,99449.50
2023-11-01T00:25:32.129Z,99469.81
2023-11-01T00:32:15.529Z,99468.28
2023-11-01T00:38:57.841Z,99483.53
2023-11-01T00:45:40.167Z,99490.78
2023-11-01T00:52:22.439Z,99505.84
2023-11-01T00:59:04.733Z,99510.41
2023-11-01T01:05:47.074Z,99523.66
2023-11-01T01:12:29.407Z,99535.22
2023-11-01T01:19:11.718Z,99561.59
2023-11-01T01:25:54.153Z,99552.31
2023-11-01T01:32:36.548Z,99574.53
2023-11-01T01:39:20.687Z,99580.91
2023-11-01T01:46:15.533Z,99597.72
2023-11-01T01:52:58.535Z,99592.66
2023-11-01T01:59:41.049Z,99615.44
2023-11-01T02:06:23.863Z,99615.50
2023-11-01T02:13:15.924Z,99630.41
2023-11-01T02:19:58.224Z,99655.78
2023-11-01T02:26:41.816Z,99661.97
2023-11-01T02:33:24.237Z,99672.56
2023-11-01T02:40:07.298Z,99682.28
2023-11-01T02:46:50.350Z,99691.06
2023-11-01T02:53:32.559Z,99723.56
2023-11-01T03:00:21.354Z,99726.34
2023-11-01T03:07:03.718Z,99730.75
2023-11-01T03:13:46.015Z,99730.84
2023-11-01T03:20:28.350Z,99735.44
2023-11-01T03:27:11.036Z,99730.53
2023-11-01T03:33:53.276Z,99737.78
2023-11-01T03:40:35.800Z,99763.28
2023-11-01T03:47:18.329Z,99789.63
2023-11-01T03:54:00.983Z,99788.00
2023-11-01T04:00:44.002Z,99800.28
2023-11-01T04:07:26.382Z,99808.19
2023-11-01T04:14:08.923Z,99817.03
2023-11-01T04:20:51.184Z,99818.94
2023-11-01T04:27:41.129Z,99819.91
2023-11-01T04:34:23.547Z,99826.13
2023-11-01T04:41:10.822Z,99840.25
2023-11-01T04:47:53.306Z,99840.38
2023-11-01T04:54:36.296Z,99834.44
2023-11-01T05:01:18.576Z,99843.31
2023-11-01T05:08:01.508Z,99848.69
2023-11-01T05:14:43.785Z,99859.28
2023-11-01T05:21:26.007Z,99870.72
2023-11-01T05:28:08.618Z,99882.13
2023-11-01T05:34:50.983Z,99890.88
2023-11-01T05:41:33.816Z,99891.75
2023-11-01T05:48:16.260Z,99903.94
2023-11-01T05:55:07.517Z,99922.22
2023-11-01T06:01:56.464Z,99925.59
2023-11-01T06:08:38.939Z,99943.84
2023-11-01T06:15:21.318Z,99949.78
2023-11-01T06:22:05.561Z,99968.91
2023-11-01T06:28:48.029Z,99974.03
2023-11-01T06:35:30.349Z,99973.06
2023-11-01T06:42:12.655Z,99993.06
2023-11-01T06:48:55.346Z,100012.19
2023-11-01T06:55:40.239Z,100015.59
2023-11-01T07:02:22.528Z,100025.16
2023-11-01T07:09:06.517Z,100037.34
2023-11-01T07:15:48.988Z,100029.47
2023-11-01T07:22:31.393Z,100034.69
2023-11-01T07:29:13.842Z,100035.56
2023-11-01T07:35:56.735Z,100038.06
2023-11-01T07:42:39.890Z,100041.44
2023-11-01T07:49:22.115Z,100046.63
2023-11-01T07:56:04.910Z,100051.81
2023-11-01T08:02:47.517Z,100043.09
2023-11-01T08:09:29.893Z,100050.03
2023-11-01T08:16:12.393Z,100056.97
2023-11-01T08:22:54.697Z,100057.78
2023-11-01T08:29:38.128Z,100080.41
2023-11-01T08:36:20.312Z,100089.97
2023-11-01T08:43:02.578Z,100104.72
2023-11-01T08:49:44.753Z,100116.06
2023-11-01T08:56:27.255Z,100124.72
2023-11-01T09:03:09.672Z,100136.88
2023-11-01T09:09:55.266Z,100137.72
2023-11-01T09:16:38.256Z,100139.41
2023-11-01T09:23:20.809Z,100148.06
2023-11-01T09:30:05.929Z,100153.28
2023-11-01T09:36:48.156Z,100165.44
2023-11-01T09:43:32.091Z,100162.78
2023-11-01T09:50:14.977Z,100167.94
2023-11-01T09:56:58.933Z,100168.72
2023-11-01T10:03:41.376Z,100173.94
2023-11-01T10:10:23.750Z,100185.25
2023-11-01T10:17:06.150Z,100185.25
2023-11-01T10:23:49.246Z,100186.13
2023-11-01T10:30:31.968Z,100185.22
2023-11-01T10:37:18.549Z,100182.56
2023-11-01T10:44:00.936Z,100177.19
2023-11-01T10:50:46.495Z,100187.53
2023-11-01T10:57:29.240Z,100170.75
2023-11-01T11:05:06.952Z,100177.56
2023-11-01T11:12:27.905Z,100186.31
2023-11-01T11:19:10.124Z,100189.00
2023-11-01T11:25:53.262Z,100203.75
2023-11-01T11:32:36.583Z,100216.41
2023-11-01T11:39:18.912Z,100209.06
2023-11-01T11:46:36.668Z,100209.97
2023-11-01T11:53:20.210Z,100203.66
2023-11-01T12:00:09.108Z,100187.69
2023-11-01T12:06:51.820Z,100198.13
2023-11-01T12:13:50.844Z,100182.06
2023-11-01T12:20:33.783Z,100179.63
2023-11-01T12:27:23.192Z,100187.66
2023-11-01T12:34:12.385Z,100172.91
2023-11-01T12:40:58.432Z,100171.34
2023-11-01T12:47:51.888Z,100160.91
2023-11-01T12:54:34.342Z,100157.56
2023-11-01T13:01:18.972Z,100165.06
2023-11-01T13:08:03.363Z,100168.38
2023-11-01T13:14:45.618Z,100167.13
2023-11-01T13:21:27.842Z,100175.66
2023-11-01T13:28:10.292Z,100172.75
2023-11-01T13:34:52.740Z,100165.22
2023-11-01T13:41:35.032Z,100174.50
2023-11-01T13:48:17.286Z,100169.78
2023-11-01T13:54:59.582Z,100171.16
2023-11-01T14:01:41.785Z,100184.06
2023-11-01T14:08:24.073Z,100192.78
2023-11-01T14:15:07.083Z,100180.94
2023-11-01T14:21:49.405Z,100181.59
2023-11-01T14:28:34.349Z,100191.13
2023-11-01T14:35:16.599Z,100181.38
2023-11-01T14:41:58.946Z,100177.81
2023-11-01T14:48:41.354Z,100177.81
2023-11-01T14:55:24.020Z,100190.09
2023-11-01T15:02:06.804Z,100188.25
2023-11-01T15:08:49.068Z,100179.25
2023-11-01T15:15:31.364Z,100171.06
2023-11-01T15:22:13.639Z,100176.97
2023-11-01T15:28:56.590Z,100164.41
2023-11-01T15:35:38.906Z,100167.44
2023-11-01T15:42:21.282Z,100179.25
2023-11-01T15:49:03.661Z,100177.00
2023-11-01T15:55:46.201Z,100180.97
2023-11-01T16:02:30.966Z,100176.06
2023-11-01T16:09:17.187Z,100169.31
2023-11-01T16:15:59.958Z,100168.66
2023-11-01T16:22:42.218Z,100178.44
2023-11-01T16:29:24.641Z,100178.63
2023-11-01T16:36:08.493Z,100183.97
2023-11-01T16:42:50.934Z,100202.41
2023-11-01T16:49:33.202Z,100199.81
2023-11-01T16:56:15.526Z,100198.09
2023-11-01T17:02:57.911Z,100191.19
2023-11-01T17:09:40.397Z,100186.97
2023-11-01T17:16:22.761Z,100185.34
2023-11-01T17:23:08.735Z,100185.47
2023-11-01T17:29:53.712Z,100177.78
2023-11-01T17:36:36.868Z,100176.09
2023-11-01T17:43:53.100Z,100171.81
2023-11-01T17:50:35.475Z,100156.16
2023-11-01T17:57:19.223Z,100153.59
2023-11-01T18:04:01.935Z,100147.56
2023-11-01T18:10:55.091Z,100149.31
2023-11-01T18:17:37.416Z,100150.16
2023-11-01T18:24:43.577Z,100142.31
2023-11-01T18:31:44.027Z,100131.94
2023-11-01T18:38:54.471Z,100127.63
2023-11-01T18:45:38.399Z,100122.47
2023-11-01T18:52:23.847Z,100118.19
2023-11-01T18:59:12.628Z,100119.13
2023-11-01T19:05:55.997Z,100109.56
2023-11-01T19:12:38.361Z,100113.94
2023-11-01T19:19:20.571Z,100102.66
2023-11-01T19:26:05.518Z,100096.59
2023-11-01T19:32:48.023Z,100101.00
2023-11-01T19:39:30.315Z,100091.38
2023-11-01T19:46:12.664Z,100087.91
2023-11-01T19:52:56.806Z,100099.28
2023-11-01T19:59:39.872Z,100095.81
2023-11-01T20:06:23.433Z,100081.97
2023-11-01T20:13:05.652Z,100081.13
2023-11-01T20:19:47.895Z,100064.63
2023-11-01T20:26:31.508Z,100062.88
2023-11-01T20:33:15.554Z,100060.22
2023-11-01T20:39:58.235Z,100061.03
2023-11-01T20:46:40.615Z,100050.59
2023-11-01T20:53:22.945Z,100044.47
2023-11-01T21:00:11.596Z,100032.25
2023-11-01T21:06:53.877Z,100029.66
2023-11-01T21:13:36.323Z,100042.72
2023-11-01T21:20:18.705Z,100039.22
2023-11-01T21:27:01.092Z,100026.97
2023-11-01T21:33:46.612Z,100028.69
2023-11-01T21:40:29.019Z,100019.13
2023-11-01T21:47:14.217Z,100012.09
2023-11-01T21:53:58.684Z,100008.56
2023-11-01T22:00:46.552Z,99996.28
2023-11-01T22:07:29.759Z,99989.22
2023-11-01T22:14:33.199Z,99980.41
2023-11-01T22:21:17.437Z,99971.56
2023-11-01T22:28:04.347Z,99970.59
2023-11-01T22:34:51.454Z,99946.13
2023-11-01T22:41:33.872Z,99952.16
2023-11-01T22:48:17.147Z,99958.16
2023-11-01T22:55:00.023Z,99944.09
2023-11-01T23:01:42.526Z,99928.28
2023-11-01T23:08:24.959Z,99921.19
2023-11-01T23:15:09.695Z,99914.09
2023-11-01T23:21:52.286Z,99897.41
2023-11-01T23:28:38.078Z,99909.50
2023-11-01T23:35:21.131Z,99905.03
2023-11-01T23:42:04.797Z,99886.59
2023-11-01T23:48:50.416Z,99873.44
2023-11-01T23:55:34.292Z,99870.75
